createdAt,value
2022-11-20T00:01:41.771Z,97218.00
2022-11-20T00:04:13.038Z,97222.78
2022-11-20T00:06:41.634Z,97215.25
2022-11-20T00:09:13.007Z,97211.50
2022-11-20T00:11:41.529Z,97218.81
2022-11-20T00:14:12.973Z,97219.44
2022-11-20T00:16:41.550Z,97225.63
2022-11-20T00:19:12.138Z,97217.63
2022-11-20T00:21:40.647Z,97219.78
2022-11-20T00:24:11.620Z,97224.63
2022-11-20T00:26:40.304Z,97220.50
2022-11-20T00:29:12.128Z,97216.47
2022-11-20T00:31:40.712Z,97216.28
2022-11-20T00:34:09.315Z,97219.34
2022-11-20T00:36:37.889Z,97218.72
2022-11-20T00:39:06.674Z,97223.03
2022-11-20T00:41:35.319Z,97221.31
2022-11-20T00:44:04.080Z,97216.41
2022-11-20T00:46:34.153Z,97218.31
2022-11-20T00:49:02.790Z,97218.16
2022-11-20T00:51:31.516Z,97225.97
2022-11-20T00:54:03.067Z,97221.13
2022-11-20T00:56:31.648Z,97218.16
2022-11-20T00:59:02.821Z,97221.72
2022-11-20T01:01:33.080Z,97222.19
2022-11-20T01:04:03.088Z,97216.84
2022-11-20T01:06:34.757Z,97216.47
2022-11-20T01:09:07.781Z,97215.94
2022-11-20T01:11:40.853Z,97218.72
2022-11-20T01:14:13.920Z,97230.44
2022-11-20T01:16:49.117Z,97234.50
2022-11-20T01:19:20.673Z,97239.69
2022-11-20T01:21:52.989Z,97233.94
2022-11-20T01:24:24.121Z,97228.91
2022-11-20T01:26:53.916Z,97237.81
2022-11-20T01:29:25.893Z,97246.00
2022-11-20T01:31:56.073Z,97236.34
2022-11-20T01:34:25.912Z,97228.88
2022-11-20T01:36:55.204Z,97226.63
2022-11-20T01:39:26.594Z,97223.41
2022-11-20T01:42:15.223Z,97236.63
2022-11-20T01:44:55.727Z,97239.78
2022-11-20T01:47:34.341Z,97239.09
2022-11-20T01:50:11.761Z,97242.91
2022-11-20T01:52:47.323Z,97236.72
2022-11-20T01:55:21.558Z,97239.97
2022-11-20T01:57:52.079Z,97235.31
2022-11-20T02:00:22.684Z,97238.81
2022-11-20T02:02:58.035Z,97232.50
2022-11-20T02:05:35.747Z,97232.78
2022-11-20T02:08:06.493Z,97220.69
2022-11-20T02:10:36.352Z,97227.09
2022-11-20T02:13:23.152Z,97226.69
2022-11-20T02:15:52.454Z,97229.91
2022-11-20T02:18:23.792Z,97221.53
2022-11-20T02:21:00.976Z,97227.91
2022-11-20T02:23:40.456Z,97222.22
2022-11-20T02:26:16.448Z,97221.56
2022-11-20T02:28:45.007Z,97222.13
2022-11-20T02:31:13.623Z,97224.31
2022-11-20T02:33:42.175Z,97221.22
2022-11-20T02:36:16.625Z,97221.50
2022-11-20T02:38:45.929Z,97219.59
2022-11-20T02:41:15.807Z,97216.09
2022-11-20T02:43:44.350Z,97207.31
2022-11-20T02:46:13.001Z,97213.94
2022-11-20T02:48:41.698Z,97204.03
2022-11-20T02:51:10.400Z,97210.94
2022-11-20T02:53:39.109Z,97215.91
2022-11-20T02:56:09.496Z,97211.16
2022-11-20T02:58:39.624Z,97213.47
2022-11-20T03:01:08.546Z,97209.84
2022-11-20T03:03:37.169Z,97203.88
2022-11-20T03:06:06.322Z,97207.91
2022-11-20T03:08:35.061Z,97208.94
2022-11-20T03:11:08.948Z,97198.94
2022-11-20T03:13:39.291Z,97206.66
2022-11-20T03:16:14.103Z,97195.75
2022-11-20T03:18:43.768Z,97192.97
2022-11-20T03:21:15.093Z,97200.63
2022-11-20T03:23:44.342Z,97198.50
2022-11-20T03:26:16.696Z,97196.59
2022-11-20T03:28:52.133Z,97202.56
2022-11-20T03:31:23.611Z,97214.72
2022-11-20T03:33:53.084Z,97208.78
2022-11-20T03:36:24.181Z,97208.34
2022-11-20T03:38:52.931Z,97206.03
2022-11-20T03:41:24.978Z,97209.34
2022-11-20T03:43:57.441Z,97205.72
2022-11-20T03:46:26.946Z,97207.72
2022-11-20T03:48:56.085Z,97209.81
2022-11-20T03:51:27.196Z,97212.31
2022-11-20T03:53:59.939Z,97205.66
2022-11-20T03:56:31.691Z,97208.69
2022-11-20T03:59:02.267Z,97202.34
2022-11-20T04:01:34.629Z,97209.69
2022-11-20T04:04:03.678Z,97203.41
2022-11-20T04:06:36.452Z,97202.88
2022-11-20T04:09:06.435Z,97205.81
2022-11-20T04:11:38.995Z,97204.63
2022-11-20T04:14:16.762Z,97204.06
2022-11-20T04:16:45.681Z,97209.03
2022-11-20T04:19:17.075Z,97210.44
2022-11-20T04:21:46.767Z,97200.63
2022-11-20T04:24:15.581Z,97200.25
2022-11-20T04:26:44.143Z,97187.13
2022-11-20T04:29:15.038Z,97193.84
2022-11-20T04:31:43.556Z,97187.69
2022-11-20T04:34:14.719Z,97192.69
2022-11-20T04:36:43.423Z,97197.66
2022-11-20T04:39:16.704Z,97188.66
2022-11-20T04:41:45.512Z,97189.63
2022-11-20T04:44:15.591Z,97184.72
2022-11-20T04:46:44.794Z,97187.31
2022-11-20T04:49:13.740Z,97181.22
2022-11-20T04:51:42.653Z,97179.78
2022-11-20T04:54:13.405Z,97189.72
2022-11-20T04:56:41.894Z,97182.75
2022-11-20T04:59:10.467Z,97177.44
2022-11-20T05:01:40.822Z,97182.44
2022-11-20T05:04:09.559Z,97184.53
2022-11-20T05:06:38.242Z,97187.16
2022-11-20T05:09:06.963Z,97179.13
2022-11-20T05:11:35.617Z,97177.78
2022-11-20T05:14:04.183Z,97176.44
2022-11-20T05:16:32.733Z,97176.97
2022-11-20T05:19:02.704Z,97178.78
2022-11-20T05:21:33.422Z,97175.53
2022-11-20T05:24:01.925Z,97173.63
2022-11-20T05:26:30.418Z,97177.28
2022-11-20T05:28:58.921Z,97179.75
2022-11-20T05:31:28.548Z,97180.38
2022-11-20T05:33:58.983Z,97178.13
2022-11-20T05:36:28.960Z,97180.88
2022-11-20T05:39:01.792Z,97177.72
2022-11-20T05:41:31.025Z,97174.81
2022-11-20T05:44:00.353Z,97180.97
2022-11-20T05:46:29.817Z,97176.34
2022-11-20T05:48:59.644Z,97186.53
2022-11-20T05:51:30.116Z,97179.25
2022-11-20T05:53:59.886Z,97175.63
2022-11-20T05:56:28.671Z,97174.31
2022-11-20T05:58:58.409Z,97173.50
2022-11-20T06:01:28.295Z,97185.09
2022-11-20T06:03:57.063Z,97190.34
2022-11-20T06:06:26.164Z,97177.91
2022-11-20T06:08:57.205Z,97189.47
2022-11-20T06:11:25.784Z,97181.00
2022-11-20T06:13:54.639Z,97175.28
2022-11-20T06:16:23.141Z,97187.28
2022-11-20T06:18:51.934Z,97184.97
2022-11-20T06:21:22.822Z,97175.16
2022-11-20T06:23:54.341Z,97171.69
2022-11-20T06:26:26.959Z,97168.72
2022-11-20T06:28:57.837Z,97169.28
2022-11-20T06:31:27.993Z,97173.63
2022-11-20T06:33:57.453Z,97175.81
2022-11-20T06:36:25.910Z,97169.16
2022-11-20T06:38:54.742Z,97173.91
2022-11-20T06:41:24.922Z,97182.94
2022-11-20T06:43:53.933Z,97185.88
2022-11-20T06:46:23.519Z,97181.84
2022-11-20T06:48:52.763Z,97177.22
2022-11-20T06:51:22.339Z,97178.59
2022-11-20T06:53:51.089Z,97183.91
2022-11-20T06:56:19.962Z,97182.19
2022-11-20T06:58:49.912Z,97179.63
2022-11-20T07:01:18.724Z,97183.09
2022-11-20T07:03:52.909Z,97185.00
2022-11-20T07:06:22.891Z,97183.06
2022-11-20T07:08:53.930Z,97188.75
2022-11-20T07:11:22.590Z,97186.22
2022-11-20T07:13:52.668Z,97183.72
2022-11-20T07:16:21.438Z,97184.47
2022-11-20T07:18:51.030Z,97179.34
2022-11-20T07:21:20.260Z,97180.94
2022-11-20T07:23:49.094Z,97186.78
2022-11-20T07:26:18.706Z,97191.56
2022-11-20T07:28:47.793Z,97196.34
2022-11-20T07:31:19.594Z,97187.19
2022-11-20T07:33:48.699Z,97179.94
2022-11-20T07:36:17.476Z,97184.41
2022-11-20T07:38:46.449Z,97185.63
2022-11-20T07:41:14.939Z,97183.00
2022-11-20T07:43:43.566Z,97186.78
2022-11-20T07:46:12.335Z,97187.25
2022-11-20T07:48:42.439Z,97186.44
2022-11-20T07:51:11.144Z,97192.28
2022-11-20T07:53:39.785Z,97180.19
2022-11-20T07:56:09.381Z,97191.28
2022-11-20T07:58:37.981Z,97194.44
2022-11-20T08:01:08.079Z,97196.94
2022-11-20T08:03:39.360Z,97199.97
2022-11-20T08:06:10.324Z,97196.28
2022-11-20T08:08:42.990Z,97195.97
2022-11-20T08:11:29.493Z,97191.69
2022-11-20T08:14:16.877Z,97192.31
2022-11-20T08:16:48.483Z,97194.97
2022-11-20T08:19:19.460Z,97187.75
2022-11-20T08:21:50.623Z,97185.88
2022-11-20T08:24:19.143Z,97187.00
2022-11-20T08:26:47.840Z,97191.03
2022-11-20T08:29:16.691Z,97189.13
2022-11-20T08:31:45.522Z,97186.94
2022-11-20T08:34:18.755Z,97185.44
2022-11-20T08:36:49.471Z,97187.97
2022-11-20T08:39:18.304Z,97194.09
2022-11-20T08:41:46.871Z,97200.31
2022-11-20T08:44:15.551Z,97205.59
2022-11-20T08:46:46.761Z,97202.31
2022-11-20T08:49:16.642Z,97205.91
2022-11-20T08:51:46.019Z,97200.72
2022-11-20T08:54:16.203Z,97192.06
2022-11-20T08:56:44.874Z,97198.84
2022-11-20T08:59:31.277Z,97198.56
2022-11-20T09:02:02.311Z,97195.38
2022-11-20T09:04:31.297Z,97187.50
2022-11-20T09:07:02.582Z,97196.28
2022-11-20T09:09:35.405Z,97183.41
2022-11-20T09:12:04.379Z,97190.59
2022-11-20T09:14:33.249Z,97197.91
2022-11-20T09:17:02.373Z,97193.19
2022-11-20T09:19:40.538Z,97203.66
2022-11-20T09:22:09.929Z,97188.88
2022-11-20T09:24:39.904Z,97190.78
2022-11-20T09:27:08.758Z,97185.38
2022-11-20T09:29:37.435Z,97183.91
2022-11-20T09:32:07.053Z,97176.91
2022-11-20T09:34:35.787Z,97174.66
2022-11-20T09:37:06.508Z,97184.09
2022-11-20T09:39:39.807Z,97174.97
2022-11-20T09:42:35.725Z,97184.56
2022-11-20T09:45:25.741Z,97184.16
2022-11-20T09:48:15.359Z,97175.81
2022-11-20T09:50:51.893Z,97175.56
2022-11-20T09:53:33.112Z,97175.31
2022-11-20T09:56:05.939Z,97177.31
2022-11-20T09:58:43.738Z,97187.53
2022-11-20T10:01:17.232Z,97186.13
2022-11-20T10:03:59.061Z,97183.41
2022-11-20T10:06:33.923Z,97192.50
2022-11-20T10:09:29.850Z,97178.63
2022-11-20T10:12:14.617Z,97185.53
2022-11-20T10:15:06.120Z,97171.66
2022-11-20T10:18:17.154Z,97177.56
2022-11-20T10:20:57.222Z,97168.97
2022-11-20T10:24:07.962Z,97173.00
2022-11-20T10:26:47.048Z,97169.41
2022-11-20T10:29:18.968Z,97168.41
2022-11-20T10:31:56.814Z,97176.19
2022-11-20T10:34:32.431Z,97172.91
2022-11-20T10:37:11.830Z,97160.78
2022-11-20T10:39:49.207Z,97158.19
2022-11-20T10:42:33.886Z,97158.91
2022-11-20T10:45:21.218Z,97161.50
2022-11-20T10:47:52.073Z,97163.56
2022-11-20T10:50:23.936Z,97157.22
2022-11-20T10:53:07.223Z,97160.84
2022-11-20T10:55:46.813Z,97161.94
2022-11-20T10:58:37.938Z,97146.25
2022-11-20T11:01:27.768Z,97144.69
2022-11-20T11:04:02.170Z,97145.88
2022-11-20T11:06:39.056Z,97137.50
2022-11-20T11:09:19.518Z,97145.06
2022-11-20T11:12:07.078Z,97146.91
2022-11-20T11:14:49.882Z,97137.66
2022-11-20T11:17:31.313Z,97144.84
2022-11-20T11:20:19.349Z,97140.53
2022-11-20T11:22:51.329Z,97134.28
2022-11-20T11:25:28.689Z,97136.50
2022-11-20T11:28:02.883Z,97137.59
2022-11-20T11:30:43.820Z,97133.38
2022-11-20T11:33:14.269Z,97135.66
2022-11-20T11:35:51.747Z,97133.81
2022-11-20T11:38:31.864Z,97134.59
2022-11-20T11:41:01.159Z,97130.25
2022-11-20T11:43:51.299Z,97132.94
2022-11-20T11:46:39.287Z,97122.63
2022-11-20T11:49:20.457Z,97121.72
2022-11-20T11:52:07.327Z,97120.41
2022-11-20T11:54:47.636Z,97113.81
2022-11-20T11:57:26.949Z,97115.16
2022-11-20T12:00:06.351Z,97110.94
2022-11-20T12:02:44.497Z,97122.69
2022-11-20T12:05:23.654Z,97114.53
2022-11-20T12:08:00.996Z,97109.31
2022-11-20T12:10:47.672Z,97106.31
2022-11-20T12:13:50.492Z,97111.63
2022-11-20T12:16:22.803Z,97107.84
2022-11-20T12:18:54.713Z,97107.09
2022-11-20T12:21:36.055Z,97108.03
2022-11-20T12:24:30.649Z,97105.16
2022-11-20T12:27:34.979Z,97096.16
2022-11-20T12:30:12.346Z,97102.84
2022-11-20T12:33:10.774Z,97094.91
2022-11-20T12:35:59.400Z,97095.06
2022-11-20T12:39:11.486Z,97091.06
2022-11-20T12:42:52.071Z,97092.50
2022-11-20T12:45:56.314Z,97099.31
2022-11-20T12:48:46.452Z,97096.78
2022-11-20T12:51:45.028Z,97099.16
2022-11-20T12:54:48.181Z,97091.84
2022-11-20T12:57:31.821Z,97081.38
2022-11-20T13:00:21.365Z,97088.53
2022-11-20T13:03:28.531Z,97084.41
2022-11-20T13:06:12.635Z,97090.47
2022-11-20T13:08:45.698Z,97087.31
2022-11-20T13:11:27.114Z,97088.59
2022-11-20T13:14:16.783Z,97089.25
2022-11-20T13:16:58.990Z,97090.94
2022-11-20T13:19:31.477Z,97083.69
2022-11-20T13:22:01.547Z,97081.44
2022-11-20T13:24:33.171Z,97078.59
2022-11-20T13:27:07.156Z,97077.94
2022-11-20T13:29:50.510Z,97073.97
2022-11-20T13:32:23.190Z,97073.81
2022-11-20T13:34:56.320Z,97075.41
2022-11-20T13:37:32.973Z,97074.63
2022-11-20T13:40:22.930Z,97070.00
2022-11-20T13:43:10.099Z,97071.13
2022-11-20T13:45:38.881Z,97074.47
2022-11-20T13:48:24.058Z,97070.81
2022-11-20T13:51:23.689Z,97070.47
2022-11-20T13:54:29.114Z,97073.19
2022-11-20T13:57:18.974Z,97076.19
2022-11-20T13:59:59.556Z,97072.53
2022-11-20T14:02:32.767Z,97080.66
2022-11-20T14:05:03.822Z,97079.69
2022-11-20T14:07:41.020Z,97090.50
2022-11-20T14:10:30.071Z,97085.41
2022-11-20T14:13:12.950Z,97091.41
2022-11-20T14:15:45.294Z,97093.91
2022-11-20T14:18:17.888Z,97095.00
2022-11-20T14:20:49.973Z,97105.03
2022-11-20T14:23:30.253Z,97090.25
2022-11-20T14:26:00.978Z,97092.09
2022-11-20T14:28:34.003Z,97089.34
2022-11-20T14:31:04.291Z,97096.63
2022-11-20T14:33:36.039Z,97085.13
2022-11-20T14:36:06.377Z,97084.56
2022-11-20T14:38:35.786Z,97085.56
2022-11-20T14:41:22.527Z,97071.25
2022-11-20T14:43:58.953Z,97079.81
2022-11-20T14:46:30.416Z,97074.16
2022-11-20T14:49:17.032Z,97071.09
2022-11-20T14:51:48.026Z,97075.88
2022-11-20T14:54:19.064Z,97073.00
2022-11-20T14:56:57.406Z,97060.88
2022-11-20T14:59:27.679Z,97077.09
2022-11-20T15:02:03.098Z,97072.81
2022-11-20T15:04:32.844Z,97070.69
2022-11-20T15:07:02.257Z,97068.00
2022-11-20T15:09:31.156Z,97065.78
2022-11-20T15:12:04.325Z,97065.34
2022-11-20T15:14:34.864Z,97063.09
2022-11-20T15:17:12.284Z,97069.03
2022-11-20T15:19:40.848Z,97067.81
2022-11-20T15:22:17.083Z,97074.66
2022-11-20T15:24:45.736Z,97064.34
2022-11-20T15:27:14.805Z,97071.50
2022-11-20T15:29:44.505Z,97068.03
2022-11-20T15:32:14.553Z,97070.88
2022-11-20T15:34:43.244Z,97073.28
2022-11-20T15:37:11.820Z,97073.91
2022-11-20T15:39:40.800Z,97081.31
2022-11-20T15:42:09.286Z,97088.25
2022-11-20T15:44:37.695Z,97081.41
2022-11-20T15:47:07.638Z,97077.81
2022-11-20T15:49:39.224Z,97110.97
2022-11-20T15:52:10.541Z,97110.50
2022-11-20T15:54:39.167Z,97110.75
2022-11-20T15:57:07.693Z,97094.56
2022-11-20T15:59:37.952Z,97093.78
2022-11-20T16:02:18.741Z,97106.50
2022-11-20T16:04:49.467Z,97112.34
2022-11-20T16:07:18.166Z,97096.38
2022-11-20T16:09:46.792Z,97095.38
2022-11-20T16:12:39.160Z,97101.06
2022-11-20T16:15:27.658Z,97101.97
2022-11-20T16:17:56.169Z,97110.94
2022-11-20T16:20:26.061Z,97117.03
2022-11-20T16:22:54.674Z,97115.66
2022-11-20T16:25:23.181Z,97100.09
2022-11-20T16:27:51.828Z,97097.41
2022-11-20T16:30:20.540Z,97103.81
2022-11-20T16:32:49.184Z,97111.69
2022-11-20T16:35:18.327Z,97099.09
2022-11-20T16:37:48.763Z,97098.19
2022-11-20T16:40:17.613Z,97091.50
2022-11-20T16:42:49.507Z,97092.00
2022-11-20T16:45:27.892Z,97099.47
2022-11-20T16:48:03.473Z,97097.09
2022-11-20T16:50:32.145Z,97102.47
2022-11-20T16:53:03.232Z,97090.69
2022-11-20T16:55:34.815Z,97097.94
2022-11-20T16:58:06.882Z,97094.19
2022-11-20T17:00:39.033Z,97084.03
2022-11-20T17:03:10.253Z,97070.75
2022-11-20T17:05:38.746Z,97069.34
2022-11-20T17:08:08.612Z,97076.09
2022-11-20T17:10:42.772Z,97088.34
2022-11-20T17:13:11.285Z,97089.75
2022-11-20T17:15:39.803Z,97096.13
2022-11-20T17:18:08.278Z,97092.66
2022-11-20T17:20:39.601Z,97096.03
2022-11-20T17:23:11.359Z,97088.84
2022-11-20T17:25:39.978Z,97086.97
2022-11-20T17:28:11.526Z,97081.75
2022-11-20T17:30:39.974Z,97083.47
2022-11-20T17:33:08.550Z,97084.69
2022-11-20T17:35:39.915Z,97076.47
2022-11-20T17:38:09.866Z,97066.19
2022-11-20T17:40:41.688Z,97064.28
2022-11-20T17:43:10.171Z,97066.19
2022-11-20T17:45:39.369Z,97068.91
2022-11-20T17:48:08.663Z,97071.50
2022-11-20T17:50:40.343Z,97072.91
2022-11-20T17:53:10.563Z,97068.84
2022-11-20T17:55:56.745Z,97068.41
2022-11-20T17:58:29.122Z,97067.69
2022-11-20T18:00:57.684Z,97074.00
2022-11-20T18:03:26.380Z,97064.94
2022-11-20T18:05:59.478Z,97065.44
2022-11-20T18:08:30.748Z,97066.44
2022-11-20T18:10:59.276Z,97065.72
2022-11-20T18:13:48.638Z,97069.53
2022-11-20T18:16:17.126Z,97064.00
2022-11-20T18:18:45.747Z,97056.94
2022-11-20T18:21:16.136Z,97055.16
2022-11-20T18:23:46.837Z,97052.06
2022-11-20T18:26:15.740Z,97039.69
2022-11-20T18:28:45.247Z,97030.44
2022-11-20T18:31:14.812Z,97027.75
2022-11-20T18:33:49.371Z,97017.28
2022-11-20T18:36:24.805Z,97020.66
2022-11-20T18:38:57.607Z,97027.16
2022-11-20T18:41:49.765Z,97023.81
2022-11-20T18:44:42.610Z,97012.28
2022-11-20T18:47:17.035Z,97020.63
2022-11-20T18:49:50.960Z,97023.91
2022-11-20T18:52:28.403Z,97020.31
2022-11-20T18:54:58.667Z,97017.44
2022-11-20T18:57:33.458Z,97015.00
2022-11-20T19:00:08.459Z,97008.75
2022-11-20T19:02:42.057Z,97006.63
2022-11-20T19:05:13.023Z,97004.53
2022-11-20T19:07:43.025Z,97003.53
2022-11-20T19:10:13.389Z,97010.88
2022-11-20T19:12:42.463Z,97004.63
2022-11-20T19:15:14.297Z,97004.50
2022-11-20T19:17:43.101Z,97014.78
2022-11-20T19:20:12.293Z,97011.88
2022-11-20T19:22:40.920Z,97003.50
2022-11-20T19:25:12.182Z,97006.50
2022-11-20T19:27:40.783Z,97001.41
2022-11-20T19:30:11.325Z,97000.91
2022-11-20T19:32:39.991Z,96997.31
2022-11-20T19:35:09.370Z,97003.50
2022-11-20T19:37:38.803Z,97001.31
2022-11-20T19:40:08.891Z,96995.03
2022-11-20T19:42:39.403Z,96994.34
2022-11-20T19:45:10.349Z,96989.56
2022-11-20T19:48:06.768Z,96984.25
2022-11-20T19:50:28.184Z,96987.97
2022-11-20T19:52:59.011Z,96985.66
2022-11-20T19:55:28.037Z,96986.19
2022-11-20T19:57:58.163Z,96983.69
2022-11-20T20:00:32.376Z,96976.72
2022-11-20T20:03:01.721Z,96978.44
2022-11-20T20:05:30.329Z,96975.34
2022-11-20T20:07:58.976Z,96969.44
2022-11-20T20:10:28.497Z,96968.44
2022-11-20T20:12:58.506Z,96961.66
2022-11-20T20:15:27.057Z,96957.97
2022-11-20T20:17:56.031Z,96959.75
2022-11-20T20:20:25.409Z,96954.88
2022-11-20T20:22:54.076Z,96952.06
2022-11-20T20:25:22.653Z,96945.22
2022-11-20T20:27:51.277Z,96943.03
2022-11-20T20:30:21.546Z,96944.09
2022-11-20T20:32:55.870Z,96937.66
2022-11-20T20:35:24.836Z,96943.81
2022-11-20T20:37:53.407Z,96939.72
2022-11-20T20:40:22.035Z,96936.78
2022-11-20T20:42:50.597Z,96931.31
2022-11-20T20:45:20.719Z,96931.69
2022-11-20T20:47:49.188Z,96914.63
2022-11-20T20:50:18.113Z,96915.75
2022-11-20T20:52:46.686Z,96922.91
2022-11-20T20:55:16.051Z,96919.72
2022-11-20T20:57:44.689Z,96917.63
2022-11-20T21:00:14.017Z,96908.28
2022-11-20T21:02:43.867Z,96915.53
2022-11-20T21:05:12.397Z,96921.22
2022-11-20T21:08:00.956Z,96920.53
2022-11-20T21:10:30.557Z,96910.78
2022-11-20T21:12:59.108Z,96911.53
2022-11-20T21:15:27.614Z,96904.97
2022-11-20T21:17:57.543Z,96897.25
2022-11-20T21:20:49.086Z,96898.06
2022-11-20T21:23:17.792Z,96897.94
2022-11-20T21:25:46.344Z,96895.13
2022-11-20T21:28:18.228Z,96887.81
2022-11-20T21:30:47.693Z,96894.69
2022-11-20T21:33:17.664Z,96895.66
2022-11-20T21:35:46.359Z,96887.78
2022-11-20T21:38:14.824Z,96888.28
2022-11-20T21:40:43.296Z,96879.69
2022-11-20T21:43:11.857Z,96874.38
2022-11-20T21:45:40.459Z,96869.13
2022-11-20T21:48:09.078Z,96872.13
2022-11-20T21:50:39.149Z,96874.84
2022-11-20T21:53:07.766Z,96875.03
2022-11-20T21:55:36.365Z,96873.13
2022-11-20T21:58:04.841Z,96868.22
2022-11-20T22:00:33.578Z,96874.72
2022-11-20T22:03:02.231Z,96885.38
2022-11-20T22:05:30.797Z,96901.91
2022-11-20T22:08:00.751Z,96906.13
2022-11-20T22:10:29.796Z,96897.50
2022-11-20T22:13:19.232Z,96902.16
2022-11-20T22:16:00.375Z,96903.13
2022-11-20T22:18:29.775Z,96903.63
2022-11-20T22:20:58.235Z,96903.44
2022-11-20T22:23:28.073Z,96895.16
2022-11-20T22:25:56.532Z,96893.38
2022-11-20T22:28:25.192Z,96886.53
2022-11-20T22:30:53.777Z,96880.41
2022-11-20T22:33:22.247Z,96879.00
2022-11-20T22:35:50.680Z,96885.88
2022-11-20T22:38:19.207Z,96886.03
2022-11-20T22:40:49.068Z,96889.66
2022-11-20T22:43:17.687Z,96878.41
2022-11-20T22:45:46.719Z,96871.88
2022-11-20T22:48:15.299Z,96874.00
2022-11-20T22:50:43.805Z,96871.09
2022-11-20T22:53:12.283Z,96876.03
2022-11-20T22:55:40.850Z,96858.28
2022-11-20T22:58:10.826Z,96864.00
2022-11-20T23:00:39.300Z,96868.94
2022-11-20T23:03:07.885Z,96863.25
2022-11-20T23:05:36.373Z,96858.63
2022-11-20T23:08:05.113Z,96860.19
2022-11-20T23:10:33.570Z,96853.09
2022-11-20T23:13:02.030Z,96856.88
2022-11-20T23:15:33.862Z,96854.28
2022-11-20T23:18:02.444Z,96841.44
2022-11-20T23:20:31.017Z,96850.03
2022-11-20T23:22:59.612Z,96847.81
2022-11-20T23:25:28.159Z,96846.28
2022-11-20T23:27:56.583Z,96849.63
2022-11-20T23:30:25.100Z,96839.81
2022-11-20T23:32:54.956Z,96840.13
2022-11-20T23:35:23.398Z,96829.53
2022-11-20T23:37:51.930Z,96832.34
2022-11-20T23:40:20.452Z,96823.16
2022-11-20T23:43:02.777Z,96818.25
2022-11-20T23:45:31.321Z,96817.81
2022-11-20T23:48:01.109Z,96813.22
2022-11-20T23:50:29.563Z,96816.66
2022-11-20T23:52:58.053Z,96816.22
2022-11-20T23:55:26.643Z,96811.91
2022-11-20T23:57:55.126Z,96810.50
